TFM - Tactical Decision Aid
ID: Runway Winds: CIG/VIS Threshold:

KPHL - Philadelphia Intl, PA, US

Updated at: 1603 UTC 22 Sep 2019
Latest TAF at: 1451 UTC 22 Sep 2019

TAF Board

Time1554Z 22/17Z 22/18Z 22/19Z 22/20Z 22/21Z 22/22Z 22/23Z 23/00Z 23/01Z 23/02Z 23/03Z 23/04Z 23/05Z>>
Type OBS PRVL PRVL PRVL PRVL PRVL PRVL PRVL PRVL PRVL PRVL PRVL PRVL PRVL
VIS 10 >6 >6 >6 >6 >6 >6 >6 >6 >6 >6 >6 >6 >6
CIG -- -- -- -- -- -- -- -- -- -- -- -- -- --
Cover FEW SCT SCT SCT SCT SCT SCT SCT SCT SCT SCT SCT SCT SCT
FltCat VFR VFR VFR VFR VFR VFR VFR VFR VFR VFR VFR VFR VFR VFR
WX -- -- -- -- -- -- -- -- -- -- -- -- -- --
WDir 200 190 190 190 190 190 190 190 190 190 190 190 190 190
WSpd 5 7 7 7 7 7 7 7 7 7 7 7 7 7
WGst -- -- -- -- -- -- -- -- -- -- -- -- -- --

TDA Impact Legend

  None Marginal Slight Moderate High
Visibility (sm) >5 3≤X≤5 1≤X<3 0.5≤X<1 <0.5
Ceiling (100 ft) >30 10≤X≤30 4≤X<10 2≤X<4 <2
Wind Speed (kt) <15 15≤X<25 25≤X<30 ≥30
Wind Gust (kt) <15 15≤X<25 25≤X<35 ≥35
Weather No Wx Reported VCTS -TS,-FZRA TS,FZRA +TS,+FZRA
TAF
KPHL 221451Z 2215/2318 19007KT P6SM FEW050 SCT220
  FM231000 20005KT 6SM BR SCT200
  FM231400 23009KT P6SM BKN200


METAR
KPHL 221554Z 20005KT 10SM FEW250 27/18 A3015 RMK AO2 SLP209 T02720183
KPHL 221454Z 24004KT 10SM SCT250 26/18 A3016 RMK AO2 SLP214 T02560183 58005
KPHL 221354Z 18003KT 10SM FEW065 SCT250 23/18 A3017 RMK AO2 SLP217 T02280183
KPHL 221254Z 19003KT 10SM FEW070 SCT250 20/17 A3018 RMK AO2 SLP221 T02000172
KPHL 221246Z 16003KT 10SM FEW070 SCT250 20/17 A3018 RMK AO2 T02000172

Radar Display
Forecast Discussion